Time;durP1;ratioP1;P1;durP2;ratioP2;P2;SDS_P1;SDS_P2;PMS_P1;PMS_P2;Temp;Humidity;BMP_temperature;BMP_pressure;BME280_temperature;BME280_humidity;BME280_pressure;Samples;Min_cycle;Max_cycle;Signal;HPM_P1;HPM_P2
2023/01/31 00:01:33;;;;;;;0.23;0.23;;;;;;;3.53;82.41;96068.75;4341690;32;20350;-63
2023/01/31 00:04:02;;;;;;;1.57;1.47;;;;;;;3.47;82.34;96065.22;4351153;32;20277;-63
2023/01/31 00:06:35;;;;;;;2.43;0.83;;;;;;;3.48;82.07;96066.81;4351153;32;20365;-63
2023/01/31 00:09:04;;;;;;;1.00;0.97;;;;;;;3.74;81.56;96066.28;4345967;32;20301;-63
2023/01/31 00:11:30;;;;;;;0.60;0.60;;;;;;;3.72;81.46;96064.94;4360534;32;20281;-63
2023/01/31 00:14:03;;;;;;;1.07;1.03;;;;;;;3.53;82.16;96066.13;4348487;32;20340;-63
2023/01/31 00:16:30;;;;;;;0.57;0.57;;;;;;;3.61;82.64;96069.19;4342482;32;20203;-63
2023/01/31 00:18:57;;;;;;;0.60;0.60;;;;;;;3.56;82.40;96047.28;4358233;32;20288;-63
2023/01/31 00:21:25;;;;;;;0.90;0.90;;;;;;;3.65;81.79;96062.44;4324743;32;20441;-63
2023/01/31 00:23:53;;;;;;;0.93;0.93;;;;;;;3.41;82.92;96061.66;4349642;32;20286;-63
2023/01/31 00:26:23;;;;;;;8.30;1.33;;;;;;;3.52;82.30;96054.03;4300872;32;20387;-63
2023/01/31 00:28:53;;;;;;;0.57;0.57;;;;;;;3.59;82.26;96065.97;4353067;32;20281;-63
2023/01/31 00:31:21;;;;;;;0.67;0.50;;;;;;;3.42;82.60;96070.34;4360579;32;20273;-63
2023/01/31 00:33:48;;;;;;;0.63;0.63;;;;;;;3.51;82.46;96076.03;4350058;32;20316;-63
2023/01/31 00:36:36;;;;;;;0.67;0.67;;;;;;;3.71;81.97;96063.34;4332981;32;20347;-63
2023/01/31 00:39:04;;;;;;;0.90;0.90;;;;;;;3.57;82.35;96064.59;4370212;32;21647;-62
2023/01/31 00:41:33;;;;;;;0.80;0.70;;;;;;;3.64;81.43;96070.53;4346226;32;20274;-63
2023/01/31 00:43:59;;;;;;;1.23;1.13;;;;;;;3.69;82.20;96058.34;4347895;32;20288;-63
2023/01/31 00:46:26;;;;;;;0.43;0.43;;;;;;;3.75;81.78;96061.84;4366467;32;20363;-64
2023/01/31 00:48:54;;;;;;;1.33;0.93;;;;;;;3.73;81.30;96069.16;4350988;32;20194;-64
2023/01/31 00:51:22;;;;;;;1.53;1.53;;;;;;;3.70;81.37;96065.19;4357343;32;20363;-64
2023/01/31 00:53:50;;;;;;;1.23;1.23;;;;;;;3.53;81.85;96068.75;4336557;32;20316;-64
2023/01/31 00:56:20;;;;;;;0.20;0.20;;;;;;;3.70;81.80;96069.63;4347142;32;20341;-63
2023/01/31 00:58:49;;;;;;;0.47;0.47;;;;;;;3.65;81.62;96069.50;4351875;32;20325;-64
2023/01/31 01:01:27;;;;;;;0.80;0.80;;;;;;;3.58;81.97;96064.38;4357988;32;20281;-64
2023/01/31 01:03:55;;;;;;;2.43;1.30;;;;;;;3.60;82.02;96054.47;4355952;32;20277;-64
2023/01/31 01:06:21;;;;;;;0.97;0.97;;;;;;;3.60;82.28;96043.16;4367500;32;20311;-64
2023/01/31 01:08:47;;;;;;;0.73;0.73;;;;;;;3.58;82.23;96060.97;4358518;32;20293;-63
2023/01/31 01:11:14;;;;;;;0.40;0.40;;;;;;;3.66;81.82;96060.63;4367631;32;20307;-63
2023/01/31 01:13:41;;;;;;;1.03;1.03;;;;;;;3.68;81.75;96072.47;4348755;32;20294;-64
2023/01/31 01:16:11;;;;;;;1.53;1.43;;;;;;;3.66;81.68;96074.53;4369840;32;20281;-64
2023/01/31 01:18:38;;;;;;;5.73;0.83;;;;;;;3.61;82.08;96074.41;4344200;32;20281;-64
2023/01/31 01:21:11;;;;;;;1.13;1.13;;;;;;;3.64;82.09;96070.53;4338800;32;20380;-63
2023/01/31 01:23:39;;;;;;;1.10;1.10;;;;;;;3.39;82.78;96068.97;4332050;32;20300;-63
2023/01/31 01:26:05;;;;;;;1.57;1.47;;;;;;;3.57;82.06;96082.97;4360759;32;20383;-64
2023/01/31 01:28:34;;;;;;;1.23;1.13;;;;;;;3.52;82.30;96077.63;4308969;32;20286;-64
2023/01/31 01:31:12;;;;;;;1.00;0.77;;;;;;;3.51;82.18;96083.91;4349822;32;20293;-63
2023/01/31 01:33:38;;;;;;;0.80;0.80;;;;;;;3.54;82.20;96078.19;4303281;32;20322;-64
2023/01/31 01:36:07;;;;;;;0.87;0.87;;;;;;;3.59;82.13;96078.28;4356019;32;20289;-63
2023/01/31 01:38:36;;;;;;;1.37;1.37;;;;;;;3.66;81.97;96081.59;4337333;32;20357;-63
2023/01/31 01:41:07;;;;;;;1.10;1.10;;;;;;;3.72;81.61;96084.13;4354159;32;20280;-63
2023/01/31 01:43:57;;;;;;;0.87;0.87;;;;;;;3.73;81.28;96084.91;4354712;32;20392;-63
2023/01/31 01:46:40;;;;;;;1.10;1.10;;;;;;;3.86;80.69;96078.59;4346518;32;20301;-64
2023/01/31 01:49:18;;;;;;;1.30;1.30;;;;;;;3.96;80.11;96084.84;4351748;32;20315;-63
2023/01/31 01:51:47;;;;;;;0.83;0.83;;;;;;;3.87;80.19;96096.75;4361047;32;20312;-63
2023/01/31 01:54:17;;;;;;;1.47;1.43;;;;;;;3.85;80.41;96098.78;4376378;32;20391;-62
2023/01/31 01:56:48;;;;;;;1.43;0.73;;;;;;;3.71;80.78;96098.25;4364912;32;20299;-62
2023/01/31 01:59:47;;;;;;;0.67;0.67;;;;;;;3.57;81.23;96085.59;4368725;32;20276;-63
2023/01/31 02:02:13;;;;;;;1.43;1.43;;;;;;;3.53;81.73;96079.25;4340139;32;20359;-64
2023/01/31 02:04:43;;;;;;;0.50;0.50;;;;;;;3.44;82.35;96097.94;4360588;32;20276;-64
2023/01/31 02:07:09;;;;;;;0.93;0.93;;;;;;;3.64;82.05;96107.25;4362638;32;20349;-63
2023/01/31 02:09:51;;;;;;;1.20;1.20;;;;;;;3.57;81.74;96111.81;4372146;32;20331;-64
2023/01/31 02:12:22;;;;;;;1.20;1.20;;;;;;;3.59;81.68;96112.41;4340301;32;20318;-64
2023/01/31 02:14:50;;;;;;;1.53;1.33;;;;;;;3.47;82.21;96111.63;4353823;32;20392;-63
2023/01/31 02:17:18;;;;;;;0.97;0.97;;;;;;;3.47;82.27;96101.13;4363773;32;20310;-63
2023/01/31 02:20:17;;;;;;;0.67;0.67;;;;;;;3.50;82.42;96103.28;4346253;32;20351;-64
2023/01/31 02:23:02;;;;;;;1.43;1.23;;;;;;;3.47;82.60;96109.00;4346183;32;20285;-63
2023/01/31 02:25:56;;;;;;;0.73;0.73;;;;;;;3.36;82.56;96116.63;4375572;32;20324;-64
2023/01/31 02:28:53;;;;;;;2.00;1.90;;;;;;;3.47;82.75;96124.72;4366317;32;20296;-63
2023/01/31 02:31:44;;;;;;;1.23;1.23;;;;;;;3.39;83.16;96118.78;4325530;32;20286;-63
2023/01/31 02:34:18;;;;;;;0.30;0.30;;;;;;;3.31;83.64;96119.16;4343254;32;20292;-63
2023/01/31 02:36:49;;;;;;;1.20;1.20;;;;;;;3.35;82.64;96125.50;4331138;32;20285;-63
2023/01/31 02:39:29;;;;;;;1.10;1.10;;;;;;;3.49;82.43;96130.53;4357974;32;20311;-64
2023/01/31 02:42:01;;;;;;;1.03;1.03;;;;;;;3.54;82.15;96126.19;4362155;32;20298;-64
2023/01/31 02:45:00;;;;;;;0.77;0.77;;;;;;;3.44;82.41;96118.91;4356517;32;20354;-64
2023/01/31 02:48:04;;;;;;;1.23;1.23;;;;;;;3.49;82.34;96120.06;4346254;32;20303;-64
2023/01/31 02:50:55;;;;;;;0.77;0.77;;;;;;;3.44;82.14;96113.66;4327098;32;20322;-63
2023/01/31 02:53:28;;;;;;;2.83;1.83;;;;;;;3.37;82.88;96110.34;4347062;32;20273;-64
2023/01/31 02:56:16;;;;;;;2.63;0.87;;;;;;;3.36;82.72;96126.31;4364700;32;20273;-64
2023/01/31 02:59:20;;;;;;;1.27;1.20;;;;;;;3.15;83.27;96127.66;4364436;32;20398;-63
2023/01/31 03:01:55;;;;;;;1.83;1.73;;;;;;;3.14;83.17;96128.69;4351256;32;20398;-63
2023/01/31 03:04:22;;;;;;;0.63;0.63;;;;;;;3.12;83.00;96129.97;4327605;32;20281;-63
2023/01/31 03:07:25;;;;;;;0.90;0.90;;;;;;;3.04;83.87;96120.59;4339130;32;20320;-63
2023/01/31 03:10:02;;;;;;;0.60;0.60;;;;;;;3.22;82.80;96120.50;4352333;32;20286;-64
2023/01/31 03:12:53;;;;;;;1.83;1.07;;;;;;;2.96;83.95;96126.16;4361806;32;20327;-64
2023/01/31 03:18:43;;;;;;;1.10;1.10;;;;;;;3.23;82.73;96132.59;4366209;32;20312;-63
2023/01/31 03:21:17;;;;;;;1.17;1.07;;;;;;;3.17;83.14;96128.22;4350526;32;20288;-64
2023/01/31 03:23:47;;;;;;;0.60;0.60;;;;;;;3.20;82.58;96125.16;4317269;32;20368;-62
2023/01/31 03:26:19;;;;;;;0.43;0.43;;;;;;;3.07;83.01;96125.38;4369361;32;20292;-63
2023/01/31 03:28:49;;;;;;;1.30;1.30;;;;;;;3.17;82.83;96132.69;4318334;32;20294;-63
2023/01/31 03:31:31;;;;;;;1.40;1.23;;;;;;;3.15;83.24;96129.47;4305623;32;20311;-62
2023/01/31 03:34:01;;;;;;;1.63;1.53;;;;;;;3.22;82.64;96140.66;4355320;32;20296;-63
2023/01/31 03:37:03;;;;;;;4.33;0.80;;;;;;;3.20;82.49;96142.72;4362748;32;20279;-63
2023/01/31 03:39:52;;;;;;;0.40;0.40;;;;;;;3.11;82.60;96152.75;4357577;32;20327;-63
2023/01/31 03:42:32;;;;;;;0.47;0.47;;;;;;;3.16;82.99;96152.84;4352054;32;20324;-63
2023/01/31 03:45:08;;;;;;;0.70;0.70;;;;;;;3.02;82.88;96157.50;4367930;32;20381;-63
2023/01/31 03:47:49;;;;;;;0.83;0.83;;;;;;;3.02;83.18;96167.19;4346115;32;20367;-63
2023/01/31 03:50:30;;;;;;;1.47;1.37;;;;;;;3.14;82.88;96169.81;4330345;32;20300;-63
2023/01/31 03:52:59;;;;;;;1.70;1.00;;;;;;;3.22;82.57;96165.06;4324920;32;20343;-63
2023/01/31 03:55:41;;;;;;;0.80;0.80;;;;;;;3.03;82.89;96174.03;4339599;32;20319;-63
2023/01/31 03:58:10;;;;;;;0.80;0.80;;;;;;;3.22;82.30;96183.41;4347270;32;20442;-63
2023/01/31 04:00:41;;;;;;;1.77;1.70;;;;;;;3.24;81.87;96181.38;4314595;32;20396;-63
2023/01/31 04:03:15;;;;;;;1.10;1.10;;;;;;;3.24;82.05;96176.13;4367576;32;20385;-63
2023/01/31 04:05:41;;;;;;;1.87;1.07;;;;;;;3.27;82.23;96175.69;4341146;32;20295;-63
2023/01/31 04:08:11;;;;;;;2.33;1.03;;;;;;;3.22;82.21;96178.16;4358420;32;20281;-63
2023/01/31 04:10:36;;;;;;;0.90;0.90;;;;;;;3.27;82.06;96175.69;4352023;32;20209;-63
2023/01/31 04:13:02;;;;;;;2.20;1.10;;;;;;;3.05;82.98;96182.47;4356671;32;20338;-63
2023/01/31 04:15:28;;;;;;;1.87;1.30;;;;;;;3.00;83.25;96187.56;4347974;32;20255;-63
2023/01/31 04:17:54;;;;;;;1.10;1.10;;;;;;;3.02;82.93;96183.72;4345823;32;20289;-63
2023/01/31 04:20:21;;;;;;;0.37;0.37;;;;;;;3.19;82.44;96189.09;4357909;32;20198;-63
2023/01/31 04:22:47;;;;;;;1.27;1.13;;;;;;;3.07;82.79;96196.94;4342995;32;20364;-64
2023/01/31 04:25:16;;;;;;;0.70;0.70;;;;;;;3.20;82.24;96195.16;4357373;32;20277;-62
2023/01/31 04:27:43;;;;;;;0.60;0.60;;;;;;;2.80;83.45;96200.16;4358292;32;20278;-63
2023/01/31 04:30:11;;;;;;;2.33;1.83;;;;;;;2.67;83.89;96195.91;4356775;32;20292;-63
2023/01/31 04:32:38;;;;;;;0.87;0.87;;;;;;;2.61;84.13;96194.97;4361570;32;20428;-63
2023/01/31 04:35:04;;;;;;;1.60;1.50;;;;;;;2.87;83.69;96200.88;4364636;32;20355;-63
2023/01/31 04:37:30;;;;;;;0.43;0.43;;;;;;;2.79;83.26;96196.75;4338121;32;20285;-63
2023/01/31 04:39:57;;;;;;;1.70;1.60;;;;;;;2.88;82.94;96195.41;4321513;32;20315;-63
2023/01/31 04:42:23;;;;;;;0.90;0.90;;;;;;;2.84;83.25;96209.19;4328822;32;20264;-63
2023/01/31 04:44:48;;;;;;;6.10;1.23;;;;;;;2.83;83.33;96203.13;4359918;32;20352;-63
2023/01/31 04:47:14;;;;;;;1.07;1.07;;;;;;;2.84;82.86;96211.78;4359960;32;20281;-62
2023/01/31 04:49:43;;;;;;;0.00;0.00;;;;;;;3.07;82.49;96206.63;4366167;32;20208;-64
2023/01/31 04:52:09;;;;;;;1.20;1.20;;;;;;;3.07;82.09;96211.88;4341039;32;20301;-63
2023/01/31 04:54:35;;;;;;;0.90;0.90;;;;;;;3.03;81.52;96218.56;4331304;32;20289;-63
2023/01/31 04:57:02;;;;;;;3.40;1.00;;;;;;;2.76;82.74;96216.31;4346856;32;20295;-63
2023/01/31 04:59:29;;;;;;;0.50;0.50;;;;;;;3.01;81.91;96225.88;4361848;32;20349;-63
2023/01/31 05:01:54;;;;;;;0.53;0.53;;;;;;;2.93;82.04;96226.16;4360133;32;20289;-63
2023/01/31 05:04:21;;;;;;;1.57;1.47;;;;;;;2.86;82.37;96235.97;4360134;32;20281;-63
2023/01/31 05:06:48;;;;;;;1.00;0.87;;;;;;;2.96;82.26;96231.75;4366224;32;20181;-63
2023/01/31 05:09:13;;;;;;;0.60;0.60;;;;;;;3.01;82.25;96233.72;4358555;32;20312;-62
2023/01/31 05:11:39;;;;;;;0.37;0.37;;;;;;;3.00;81.70;96238.16;4344596;32;20281;-63
2023/01/31 05:14:06;;;;;;;0.53;0.53;;;;;;;3.13;81.58;96239.78;4354434;32;20193;-62
2023/01/31 05:16:34;;;;;;;1.10;1.10;;;;;;;3.10;81.32;96235.03;4351120;32;20285;-63
2023/01/31 05:19:00;;;;;;;2.20;1.07;;;;;;;2.99;81.87;96233.94;4365564;32;20296;-62
2023/01/31 05:21:27;;;;;;;0.20;0.20;;;;;;;2.98;81.74;96245.44;4355530;32;20269;-62
2023/01/31 05:23:55;;;;;;;1.73;1.10;;;;;;;2.96;82.08;96247.50;4358283;32;20276;-63
2023/01/31 05:26:21;;;;;;;0.20;0.20;;;;;;;3.15;81.46;96256.09;4357361;32;20287;-63
2023/01/31 05:28:51;;;;;;;0.97;0.97;;;;;;;2.93;82.02;96253.16;4368570;32;20300;-62
2023/01/31 05:31:18;;;;;;;1.20;1.20;;;;;;;3.06;81.56;96252.22;4359611;32;20273;-63
2023/01/31 05:33:43;;;;;;;0.83;0.83;;;;;;;2.97;81.85;96250.91;4355988;32;20281;-62
2023/01/31 05:36:10;;;;;;;0.50;0.50;;;;;;;2.98;81.85;96250.69;4381778;32;20322;-63
2023/01/31 05:38:36;;;;;;;1.97;1.20;;;;;;;2.97;81.22;96256.94;4354333;32;20181;-63
2023/01/31 05:41:02;;;;;;;1.00;1.00;;;;;;;2.83;82.27;96255.53;4349463;32;20304;-63
2023/01/31 05:43:27;;;;;;;0.40;0.40;;;;;;;2.87;81.85;96248.84;4342880;32;20343;-63
2023/01/31 05:45:54;;;;;;;0.93;0.93;;;;;;;2.60;82.12;96248.34;4364978;32;20208;-63
2023/01/31 05:48:20;;;;;;;0.77;0.77;;;;;;;2.69;82.59;96246.25;4376311;32;20193;-63
2023/01/31 05:50:48;;;;;;;1.20;1.20;;;;;;;2.80;82.21;96253.34;4353752;32;20278;-63
2023/01/31 05:53:17;;;;;;;0.93;0.93;;;;;;;2.82;82.20;96263.59;4342967;32;20290;-62
2023/01/31 05:55:44;;;;;;;0.43;0.43;;;;;;;2.93;81.56;96261.03;4365286;32;20285;-61
2023/01/31 05:58:11;;;;;;;0.57;0.57;;;;;;;2.83;82.10;96263.38;4363572;32;20314;-63
2023/01/31 06:00:36;;;;;;;0.30;0.30;;;;;;;2.90;81.72;96263.31;4343301;32;20399;-62
2023/01/31 06:03:03;;;;;;;0.73;0.73;;;;;;;2.73;81.95;96274.37;4350136;32;20289;-63
2023/01/31 06:05:29;;;;;;;1.70;1.70;;;;;;;2.84;82.26;96270.22;4349867;32;20280;-62
2023/01/31 06:07:55;;;;;;;0.30;0.30;;;;;;;2.95;81.55;96261.59;4319322;32;20351;-63
2023/01/31 06:10:22;;;;;;;0.93;0.90;;;;;;;2.92;81.14;96256.81;4338619;32;20320;-63
2023/01/31 06:12:49;;;;;;;1.10;1.10;;;;;;;2.89;81.19;96254.66;4365382;32;20304;-63
2023/01/31 06:15:14;;;;;;;1.00;1.00;;;;;;;2.74;82.16;96264.69;4353627;32;20294;-62
2023/01/31 06:17:39;;;;;;;3.70;1.17;;;;;;;2.61;82.28;96260.44;4350363;32;20345;-63
2023/01/31 06:20:05;;;;;;;0.73;0.73;;;;;;;2.73;82.42;96263.09;4338054;32;20223;-63
2023/01/31 06:22:30;;;;;;;1.67;1.20;;;;;;;2.73;82.40;96266.53;4334439;32;20202;-63
2023/01/31 06:24:58;;;;;;;1.60;1.10;;;;;;;2.79;81.66;96262.22;4335547;32;20207;-63
2023/01/31 06:27:24;;;;;;;1.40;0.93;;;;;;;2.64;82.07;96254.75;4360640;32;20209;-64
2023/01/31 06:29:50;;;;;;;1.23;1.23;;;;;;;2.66;82.37;96242.25;4350774;32;20289;-63
2023/01/31 06:32:16;;;;;;;0.50;0.50;;;;;;;2.74;81.98;96255.03;4341829;32;20185;-63
2023/01/31 06:34:44;;;;;;;0.83;0.83;;;;;;;2.72;81.75;96248.41;4370786;32;20201;-63
2023/01/31 06:37:15;;;;;;;0.50;0.50;;;;;;;2.73;81.87;96261.28;4329156;32;20286;-63
2023/01/31 06:39:40;;;;;;;1.70;1.60;;;;;;;2.81;81.06;96251.53;4338959;32;20345;-64
2023/01/31 06:42:06;;;;;;;3.60;1.07;;;;;;;2.66;81.40;96263.19;4348754;32;20336;-64
2023/01/31 06:44:32;;;;;;;3.90;0.80;;;;;;;2.56;81.99;96267.34;4348047;32;20225;-63
2023/01/31 06:47:01;;;;;;;2.33;1.23;;;;;;;2.57;82.39;96269.75;4355355;32;20206;-63
2023/01/31 06:49:28;;;;;;;0.90;0.90;;;;;;;2.65;81.83;96269.47;4351389;32;20296;-63
2023/01/31 06:51:55;;;;;;;0.90;0.87;;;;;;;2.72;81.07;96271.97;4358059;32;20277;-63
2023/01/31 06:54:21;;;;;;;1.10;1.10;;;;;;;2.67;81.20;96274.47;4352700;32;20354;-63
2023/01/31 06:56:48;;;;;;;0.53;0.53;;;;;;;2.67;81.13;96274.47;4369222;32;20285;-63
2023/01/31 06:59:14;;;;;;;0.77;0.77;;;;;;;2.67;80.74;96277.91;4334595;32;20316;-62
2023/01/31 07:01:40;;;;;;;0.30;0.30;;;;;;;2.46;81.67;96283.56;4363647;32;20295;-63
2023/01/31 07:04:06;;;;;;;0.83;0.83;;;;;;;2.50;81.35;96284.72;4346728;32;20288;-64
2023/01/31 07:06:31;;;;;;;1.03;1.03;;;;;;;2.56;81.43;96299.56;4346492;32;20257;-63
2023/01/31 07:08:58;;;;;;;2.30;1.17;;;;;;;2.52;81.10;96297.59;4302348;32;20301;-63
2023/01/31 07:11:26;;;;;;;0.83;0.83;;;;;;;2.50;81.37;96297.81;4351403;32;20200;-63
2023/01/31 07:13:53;;;;;;;0.67;0.67;;;;;;;2.59;80.63;96293.91;4365290;32;20296;-63
2023/01/31 07:16:22;;;;;;;2.57;1.47;;;;;;;2.49;80.94;96303.28;4336621;32;20328;-63
2023/01/31 07:19:00;;;;;;;0.40;0.40;;;;;;;2.59;80.66;96295.72;4350159;32;20277;-64
2023/01/31 07:21:25;;;;;;;0.70;0.70;;;;;;;2.35;81.61;96289.53;4348617;32;20348;-63
2023/01/31 07:23:51;;;;;;;1.10;1.00;;;;;;;2.54;81.12;96295.56;4352931;32;20310;-64
2023/01/31 07:26:17;;;;;;;1.10;1.10;;;;;;;2.67;80.46;96300.66;4330877;32;20208;-64
2023/01/31 07:28:43;;;;;;;1.57;1.47;;;;;;;2.66;80.38;96292.00;4361392;32;20255;-63
2023/01/31 07:31:13;;;;;;;5.23;0.80;;;;;;;2.70;80.11;96293.16;4370897;32;20292;-56
2023/01/31 07:33:41;;;;;;;0.73;0.73;;;;;;;3.55;92.18;96289.59;4343875;32;20310;-57
2023/01/31 07:36:12;;;;;;;0.40;0.40;;;;;;;4.91;94.10;96291.88;4353608;32;20311;-57
2023/01/31 07:38:39;;;;;;;0.73;0.73;;;;;;;5.74;90.37;96290.47;4358499;32;20293;-55
2023/01/31 07:41:05;;;;;;;0.63;0.63;;;;;;;6.29;80.00;96281.84;4362506;32;20281;-55
2023/01/31 07:43:31;;;;;;;0.50;0.50;;;;;;;6.84;74.38;96284.44;4341050;32;20372;-56
2023/01/31 07:45:57;;;;;;;0.27;0.27;;;;;;;7.42;73.64;96273.19;4338662;32;20181;-55
2023/01/31 07:48:23;;;;;;;1.67;0.87;;;;;;;7.85;72.16;96280.19;4361953;32;20349;-54
2023/01/31 07:50:51;;;;;;;0.50;0.50;;;;;;;8.16;68.52;96289.13;4362359;32;20346;-54
2023/01/31 07:53:18;;;;;;;0.80;0.80;;;;;;;8.25;68.88;96292.91;4351624;32;20260;-56
2023/01/31 07:55:48;;;;;;;0.97;0.97;;;;;;;8.30;65.97;96286.06;4361347;32;20312;-63
2023/01/31 07:58:15;;;;;;;1.30;1.20;;;;;;;7.96;58.67;96290.81;4337732;32;20272;-62
2023/01/31 08:03:31;;;;;;;2.53;1.50;;;;;;;5.19;66.89;96304.25;4342163;32;20396;-64
2023/01/31 08:06:00;;;;;;;1.90;1.43;;;;;;;4.10;71.26;96311.97;4341332;32;20309;-64
2023/01/31 08:08:27;;;;;;;2.40;0.83;;;;;;;4.05;73.42;96309.22;4310818;32;20290;-66
2023/01/31 08:10:54;;;;;;;0.50;0.50;;;;;;;3.98;73.19;96303.25;4358940;32;20335;-64
2023/01/31 08:13:21;;;;;;;1.00;0.93;;;;;;;3.76;74.31;96299.56;4321982;32;20328;-63
2023/01/31 08:15:46;;;;;;;0.63;0.63;;;;;;;3.59;74.63;96302.06;4341260;32;20285;-65
2023/01/31 08:18:13;;;;;;;1.00;1.00;;;;;;;3.45;76.99;96303.28;4333155;32;20356;-65
2023/01/31 08:20:40;;;;;;;0.63;0.63;;;;;;;3.03;76.73;96294.59;4369326;32;20251;-64
2023/01/31 08:23:07;;;;;;;0.47;0.47;;;;;;;3.19;77.20;96296.59;4335138;32;20317;-65
2023/01/31 08:25:35;;;;;;;32.77;1.93;;;;;;;3.03;77.50;96299.81;4337079;32;20435;-65
2023/01/31 08:28:01;;;;;;;2.43;1.50;;;;;;;3.15;78.48;96297.25;4348950;32;20275;-65
2023/01/31 08:30:28;;;;;;;2.43;1.63;;;;;;;3.03;77.84;96302.44;4358529;32;20288;-65
2023/01/31 08:32:56;;;;;;;2.33;2.23;;;;;;;3.22;77.27;96298.75;4341198;32;20200;-63
2023/01/31 08:35:21;;;;;;;2.20;0.97;;;;;;;3.18;77.82;96296.78;4347938;32;20277;-63
2023/01/31 08:37:47;;;;;;;0.93;0.83;;;;;;;3.23;77.16;96304.81;4357023;32;20368;-62
2023/01/31 08:40:12;;;;;;;0.43;0.43;;;;;;;3.25;77.58;96300.94;4357966;32;20219;-64
2023/01/31 08:42:39;;;;;;;1.70;0.83;;;;;;;3.31;77.01;96313.16;4360439;32;20193;-67
2023/01/31 08:45:06;;;;;;;0.70;0.70;;;;;;;3.42;76.79;96298.47;4351026;32;20188;-65
2023/01/31 08:47:32;;;;;;;0.90;0.90;;;;;;;3.55;76.83;96307.97;4338227;32;20281;-65
2023/01/31 08:49:58;;;;;;;2.10;1.23;;;;;;;3.67;77.29;96306.19;4354330;32;20288;-64
2023/01/31 08:52:23;;;;;;;0.50;0.50;;;;;;;3.79;76.81;96304.37;4343909;32;20219;-62
2023/01/31 08:54:49;;;;;;;0.77;0.77;;;;;;;3.74;75.68;96314.78;4654129;27;20257;-59
2023/01/31 08:57:14;;;;;;;1.60;1.60;;;;;;;3.87;74.92;96301.44;4330840;32;20212;-58
2023/01/31 08:59:40;;;;;;;1.60;0.60;;;;;;;4.20;73.77;96302.69;4344678;32;20205;-58
2023/01/31 09:02:05;;;;;;;2.53;1.37;;;;;;;3.88;75.46;96305.66;4330951;32;20194;-60
2023/01/31 09:04:30;;;;;;;0.37;0.37;;;;;;;4.01;74.55;96308.06;4342392;32;20193;-58
2023/01/31 09:06:56;;;;;;;4.23;0.93;;;;;;;4.33;75.63;96295.41;4342922;32;20212;-58
2023/01/31 09:09:21;;;;;;;0.80;0.80;;;;;;;4.20;72.46;96300.06;4342542;32;20216;-58
2023/01/31 09:11:47;;;;;;;0.50;0.50;;;;;;;4.33;72.55;96295.41;4338416;32;20213;-59
2023/01/31 09:14:12;;;;;;;1.03;1.03;;;;;;;4.43;73.84;96290.34;4346152;32;20208;-58
2023/01/31 09:16:38;;;;;;;1.63;1.20;;;;;;;4.50;71.83;96298.13;4330262;32;20265;-58
2023/01/31 09:19:03;;;;;;;1.33;1.13;;;;;;;4.46;72.24;96302.25;4341623;32;20280;-59
2023/01/31 09:21:29;;;;;;;0.57;0.57;;;;;;;4.52;68.90;96295.28;4351275;32;20269;-60
2023/01/31 09:24:01;;;;;;;3.53;1.37;;;;;;;4.69;71.31;96288.25;4329622;32;20216;-61
2023/01/31 09:26:27;;;;;;;0.77;0.50;;;;;;;4.62;68.77;96291.00;4332287;32;20273;-59
2023/01/31 09:28:52;;;;;;;2.80;0.60;;;;;;;4.88;70.97;96281.03;4349221;32;20336;-59
2023/01/31 09:31:19;;;;;;;1.07;0.97;;;;;;;5.21;68.80;96294.25;4341858;32;20456;-48
2023/01/31 09:33:45;;;;;;;0.27;0.27;;;;;;;8.40;85.21;96275.56;4344637;32;20205;-45
2023/01/31 09:36:13;;;;;;;1.53;1.23;;;;;;;9.97;71.99;96268.09;4344048;32;20358;-45
2023/01/31 09:38:40;;;;;;;1.67;1.20;;;;;;;11.01;51.56;96280.63;4342089;32;20194;-51
2023/01/31 09:41:18;;;;;;;0.73;0.63;;;;;;;12.33;50.10;96274.47;4343078;32;20201;-46
2023/01/31 09:43:49;;;;;;;1.23;1.23;;;;;;;12.53;50.29;96286.78;4344608;32;20295;-44
2023/01/31 09:46:18;;;;;;;0.83;0.83;;;;;;;12.03;45.37;96301.34;4345373;32;20213;-51
2023/01/31 09:48:47;;;;;;;1.30;1.03;;;;;;;10.83;47.42;96310.41;4342009;32;20193;-48
2023/01/31 09:51:15;;;;;;;0.60;0.60;;;;;;;12.77;48.02;96291.34;4339545;32;20189;-53
2023/01/31 09:53:41;;;;;;;1.97;0.73;;;;;;;12.78;45.42;96299.03;4318298;33;20193;-49
2023/01/31 09:56:28;;;;;;;1.50;0.83;;;;;;;12.58;44.88;96291.25;4341358;32;20193;-50
2023/01/31 09:59:18;;;;;;;1.87;1.20;;;;;;;11.21;46.67;96311.63;4336019;32;20233;-60
2023/01/31 10:01:47;;;;;;;6.13;2.37;;;;;;;9.91;47.47;96316.88;4335922;32;20201;-59
2023/01/31 10:04:40;;;;;;;3.20;1.00;;;;;;;8.88;50.51;96319.47;4344646;32;20197;-59
2023/01/31 10:07:13;;;;;;;6.53;1.27;;;;;;;7.36;55.89;96307.69;4344625;32;20202;-58
2023/01/31 10:09:45;;;;;;;0.83;0.83;;;;;;;6.62;58.58;96313.44;4331716;32;20193;-56
2023/01/31 10:12:16;;;;;;;1.10;1.10;;;;;;;6.02;62.41;96308.06;4343765;32;20355;-58
2023/01/31 10:14:49;;;;;;;0.73;0.73;;;;;;;5.67;62.62;96316.12;4336474;32;20348;-57
2023/01/31 10:17:24;;;;;;;2.00;1.37;;;;;;;5.48;62.25;96313.72;4338132;32;20290;-58
2023/01/31 10:20:07;;;;;;;0.17;0.17;;;;;;;5.56;63.56;96298.59;4342352;32;20349;-56
2023/01/31 10:22:43;;;;;;;3.40;0.87;;;;;;;5.37;62.71;96298.78;4343657;32;20359;-57
2023/01/31 10:25:17;;;;;;;3.60;0.70;;;;;;;5.50;61.82;96279.28;4340952;32;20277;-58
2023/01/31 10:27:50;;;;;;;0.40;0.40;;;;;;;5.78;62.35;96266.06;4336778;32;20303;-58
2023/01/31 10:30:24;;;;;;;1.53;0.73;;;;;;;5.60;62.48;96268.94;4337435;32;20329;-57
2023/01/31 10:33:18;;;;;;;4.23;0.43;;;;;;;5.40;60.39;96263.31;4342983;32;20285;-55
2023/01/31 10:35:44;;;;;;;0.87;0.87;;;;;;;5.12;62.17;96261.50;4324645;32;20344;-54
2023/01/31 10:38:27;;;;;;;0.50;0.50;;;;;;;4.76;63.18;96276.59;4339569;32;20327;-57
2023/01/31 10:41:00;;;;;;;1.40;0.97;;;;;;;4.97;64.14;96269.13;4340453;32;20281;-57
2023/01/31 10:43:45;;;;;;;0.70;0.70;;;;;;;5.19;64.31;96264.81;4342793;32;20380;-58
2023/01/31 10:46:11;;;;;;;0.65;0.65;;;;;;;5.10;63.19;96258.31;4338759;32;20152;-54
2023/01/31 10:48:38;;;;;;;0.83;0.83;;;;;;;4.83;63.94;96269.38;4338843;32;20215;-59
2023/01/31 10:51:28;;;;;;;5.60;0.63;;;;;;;4.83;64.76;96260.69;4334909;32;20467;-59
2023/01/31 10:54:00;;;;;;;0.43;0.43;;;;;;;4.89;65.46;96266.84;4342404;32;20330;-59
2023/01/31 10:56:34;;;;;;;3.43;1.13;;;;;;;5.04;65.18;96259.25;4347950;32;20305;-57
2023/01/31 10:59:03;;;;;;;4.00;0.50;;;;;;;4.96;64.78;96259.63;4334405;32;20288;-59
2023/01/31 11:01:29;;;;;;;2.63;1.33;;;;;;;4.80;64.95;96259.31;4333760;32;20304;-60
2023/01/31 11:03:55;;;;;;;0.27;0.27;;;;;;;4.91;64.84;96259.53;4339261;32;20290;-59
2023/01/31 11:06:23;;;;;;;1.30;1.17;;;;;;;4.79;65.41;96249.03;4343701;32;20255;-58
2023/01/31 11:08:53;;;;;;;0.17;0.17;;;;;;;4.81;66.97;96253.03;4336749;32;20294;-57
2023/01/31 11:11:20;;;;;;;0.27;0.27;;;;;;;5.16;66.09;96237.13;4330227;32;20319;-58
2023/01/31 11:13:58;;;;;;;0.73;0.73;;;;;;;5.29;65.39;96233.41;4341435;32;20309;-58
2023/01/31 11:16:26;;;;;;;0.53;0.53;;;;;;;5.11;65.40;96223.09;4340078;32;20321;-59
2023/01/31 11:18:52;;;;;;;0.40;0.40;;;;;;;4.98;65.38;96226.03;4330673;32;20361;-58
2023/01/31 11:21:22;;;;;;;2.43;1.33;;;;;;;4.89;67.28;96219.53;4338308;32;20297;-58
2023/01/31 11:23:49;;;;;;;0.30;0.30;;;;;;;4.91;66.67;96212.22;4337579;32;20294;-56
2023/01/31 11:26:50;;;;;;;0.77;0.77;;;;;;;4.86;66.29;96210.28;4338010;32;20294;-61
2023/01/31 11:29:28;;;;;;;0.87;0.83;;;;;;;4.73;66.62;96206.09;4327423;32;20320;-61
2023/01/31 11:31:55;;;;;;;1.00;0.80;;;;;;;4.52;67.76;96209.38;4341639;32;20333;-61
2023/01/31 11:34:28;;;;;;;1.03;0.43;;;;;;;4.52;67.98;96198.88;4341922;32;20294;-61
2023/01/31 11:37:15;;;;;;;0.60;0.60;;;;;;;4.47;68.71;96194.31;4337287;32;20384;-59
2023/01/31 11:39:41;;;;;;;1.10;0.57;;;;;;;4.32;69.31;96185.34;4335175;32;20345;-58
2023/01/31 11:42:16;;;;;;;0.50;0.50;;;;;;;4.47;68.70;96173.28;4342358;32;20278;-58
2023/01/31 11:45:01;;;;;;;6.00;1.37;;;;;;;4.56;68.57;96165.84;4340115;32;20220;-58
2023/01/31 11:47:36;;;;;;;2.77;0.67;;;;;;;4.63;68.54;96158.59;4323526;32;20319;-61
2023/01/31 11:50:02;;;;;;;0.60;0.60;;;;;;;4.48;68.68;96159.13;4336212;32;20293;-61
2023/01/31 11:52:31;;;;;;;0.30;0.30;;;;;;;4.44;69.19;96165.06;4338140;32;20328;-61
2023/01/31 11:55:01;;;;;;;0.40;0.40;;;;;;;4.49;69.41;96167.81;4340952;32;20193;-61
2023/01/31 11:57:39;;;;;;;0.80;0.80;;;;;;;4.48;69.59;96155.69;4335801;32;20298;-61
2023/01/31 12:00:21;;;;;;;0.83;0.83;;;;;;;4.66;69.61;96146.84;4341472;32;20384;-61
2023/01/31 12:03:02;;;;;;;0.50;0.50;;;;;;;4.66;69.38;96142.38;4334558;32;20285;-61
2023/01/31 12:05:41;;;;;;;0.93;0.93;;;;;;;4.68;69.36;96140.31;4330415;32;20282;-61